Time;durP1;ratioP1;P1;durP2;ratioP2;P2;SDS_P1;SDS_P2;PMS_P1;PMS_P2;Temp;Humidity;BMP_temperature;BMP_pressure;BME280_temperature;BME280_humidity;BME280_pressure;Samples;Min_cycle;Max_cycle;Signal;HPM_P1;HPM_P2
2023/03/29 00:01:24;;;;;;;4.80;3.00;;;7.40;99.90;;;;;;5045594;28;20436;-74
2023/03/29 00:04:12;;;;;;;6.43;3.00;;;7.40;99.90;;;;;;5049880;28;20469;-74
2023/03/29 00:07:03;;;;;;;4.17;2.87;;;7.20;99.90;;;;;;5051675;28;20540;-72
2023/03/29 00:09:48;;;;;;;3.70;2.63;;;7.10;99.90;;;;;;5047676;28;20503;-72
2023/03/29 00:12:34;;;;;;;5.00;2.90;;;7.00;99.90;;;;;;5046199;28;20861;-73
2023/03/29 00:15:21;;;;;;;5.23;3.17;;;7.00;99.90;;;;;;5053847;28;20484;-72
2023/03/29 00:18:07;;;;;;;5.83;3.30;;;6.90;99.90;;;;;;5049082;28;20523;-73
2023/03/29 00:20:58;;;;;;;3.90;2.87;;;6.80;99.90;;;;;;5045165;28;20459;-74
2023/03/29 00:23:44;;;;;;;5.03;3.10;;;6.90;99.90;;;;;;5045402;28;20523;-73
2023/03/29 00:26:30;;;;;;;5.30;2.97;;;7.00;99.90;;;;;;5048861;28;20915;-72
2023/03/29 00:29:16;;;;;;;6.67;3.40;;;6.90;99.90;;;;;;5046230;28;20557;-73
2023/03/29 00:32:02;;;;;;;6.37;3.40;;;6.80;99.90;;;;;;5045453;28;20461;-74
2023/03/29 00:34:49;;;;;;;4.00;2.97;;;6.70;99.90;;;;;;5055537;28;20449;-74
2023/03/29 00:37:36;;;;;;;4.57;2.90;;;6.60;99.90;;;;;;5051680;28;21102;-73
2023/03/29 00:40:22;;;;;;;3.53;3.10;;;6.60;99.90;;;;;;5041211;28;20893;-74
2023/03/29 00:43:10;;;;;;;4.87;3.20;;;6.60;99.90;;;;;;5049933;28;20514;-74
2023/03/29 00:45:56;;;;;;;2.90;2.60;;;6.50;99.90;;;;;;5043124;28;20442;-74
2023/03/29 00:48:42;;;;;;;5.30;3.10;;;6.40;99.90;;;;;;5045243;28;20476;-73
2023/03/29 00:51:33;;;;;;;5.83;3.10;;;6.40;99.90;;;;;;5056643;28;20416;-73
2023/03/29 00:54:20;;;;;;;4.30;2.30;;;6.40;99.90;;;;;;5049567;28;20513;-71
2023/03/29 00:57:08;;;;;;;4.73;2.73;;;6.40;99.90;;;;;;5048667;28;20468;-73
2023/03/29 00:59:55;;;;;;;5.47;2.63;;;6.50;99.90;;;;;;5045297;28;20465;-73
2023/03/29 01:02:43;;;;;;;5.37;2.57;;;6.40;99.90;;;;;;5050013;28;20525;-74
2023/03/29 01:05:33;;;;;;;6.57;3.05;;;6.50;99.90;;;;;;5049941;28;20429;-74
2023/03/29 01:08:24;;;;;;;5.90;3.40;;;6.50;99.90;;;;;;5055417;28;20716;-72
2023/03/29 01:11:17;;;;;;;4.33;2.80;;;6.60;99.90;;;;;;5045387;28;20418;-74
2023/03/29 01:14:06;;;;;;;4.60;2.80;;;6.80;99.90;;;;;;5048781;28;20457;-74
2023/03/29 01:16:52;;;;;;;3.80;2.60;;;6.80;99.90;;;;;;5051635;28;20241;-72
2023/03/29 01:19:43;;;;;;;9.90;2.97;;;6.70;99.90;;;;;;5057136;28;20202;-72
2023/03/29 01:22:38;;;;;;;5.30;3.10;;;6.70;99.90;;;;;;5055608;28;20809;-73
2023/03/29 01:25:29;;;;;;;6.27;3.07;;;6.90;99.90;;;;;;5056950;28;20436;-73
2023/03/29 01:28:21;;;;;;;3.83;2.30;;;6.90;99.90;;;;;;5056207;28;20735;-74
2023/03/29 01:31:10;;;;;;;4.30;2.10;;;7.00;99.90;;;;;;5052177;28;20429;-73
2023/03/29 01:34:02;;;;;;;5.50;2.73;;;6.90;99.90;;;;;;5056957;28;20547;-74
2023/03/29 01:36:53;;;;;;;4.70;2.53;;;6.80;99.90;;;;;;5060443;28;20429;-74
2023/03/29 01:39:39;;;;;;;5.50;2.57;;;6.80;99.90;;;;;;5051273;28;20462;-73
2023/03/29 01:42:45;;;;;;;5.60;2.70;;;6.70;99.90;;;;;;5054969;28;20447;-73
2023/03/29 01:45:36;;;;;;;5.10;2.80;;;6.70;99.90;;;;;;5048240;28;20504;-74
2023/03/29 01:48:28;;;;;;;7.73;2.83;;;6.60;99.90;;;;;;5047820;28;20448;-73
2023/03/29 01:51:18;;;;;;;5.10;2.57;;;6.80;99.90;;;;;;5054631;28;20519;-73
2023/03/29 01:54:07;;;;;;;6.28;2.70;;;6.80;99.90;;;;;;5050906;28;20449;-73
2023/03/29 01:56:55;;;;;;;3.50;2.23;;;6.80;99.90;;;;;;5056330;28;20211;-74
2023/03/29 01:59:43;;;;;;;4.43;2.83;;;6.70;99.90;;;;;;5056316;28;20836;-73
2023/03/29 02:02:31;;;;;;;5.03;2.50;;;6.60;99.90;;;;;;5063237;28;21072;-73
2023/03/29 02:05:19;;;;;;;6.70;2.87;;;6.70;99.90;;;;;;5059034;28;21202;-74
2023/03/29 02:08:07;;;;;;;4.83;3.10;;;6.70;99.90;;;;;;5054959;28;20486;-69
2023/03/29 02:10:54;;;;;;;10.97;3.43;;;6.70;99.90;;;;;;5047027;28;20957;-73
2023/03/29 02:13:40;;;;;;;6.95;2.55;;;6.60;99.90;;;;;;5060764;28;20519;-73
2023/03/29 02:16:25;;;;;;;5.27;2.70;;;6.60;99.90;;;;;;5054592;28;20767;-72
2023/03/29 02:19:14;;;;;;;6.53;2.60;;;6.50;99.90;;;;;;5057343;28;20448;-72
2023/03/29 02:22:04;;;;;;;8.53;2.93;;;6.60;99.90;;;;;;5052876;28;20425;-72
2023/03/29 02:24:55;;;;;;;5.77;3.00;;;6.60;99.90;;;;;;5052460;28;20428;-72
2023/03/29 02:27:41;;;;;;;5.17;2.67;;;6.50;99.90;;;;;;5059328;28;20438;-72
2023/03/29 02:30:31;;;;;;;5.73;2.83;;;6.50;99.90;;;;;;5057981;28;20945;-72
2023/03/29 02:33:20;;;;;;;3.40;2.40;;;6.40;99.90;;;;;;5059311;28;20449;-72
2023/03/29 02:36:12;;;;;;;4.47;2.87;;;6.40;99.90;;;;;;5054050;28;20432;-73
2023/03/29 02:39:00;;;;;;;7.57;2.90;;;6.50;99.90;;;;;;5050337;28;20485;-72
2023/03/29 02:41:49;;;;;;;5.17;3.37;;;6.50;99.90;;;;;;5053652;28;20426;-72
2023/03/29 02:44:37;;;;;;;4.23;2.43;;;6.50;99.90;;;;;;5064034;28;20417;-72
2023/03/29 02:47:28;;;;;;;5.90;2.23;;;6.50;99.90;;;;;;5056960;28;20441;-72
2023/03/29 02:50:15;;;;;;;9.90;2.80;;;6.50;99.90;;;;;;5056169;28;20809;-71
2023/03/29 02:53:07;;;;;;;5.47;2.50;;;6.60;99.90;;;;;;5057879;28;20453;-72
2023/03/29 02:55:53;;;;;;;3.20;2.50;;;6.60;99.90;;;;;;5060446;28;20430;-72
2023/03/29 02:58:38;;;;;;;4.67;2.63;;;6.80;99.90;;;;;;5045455;28;20476;-72
2023/03/29 03:01:25;;;;;;;3.90;2.70;;;6.80;99.90;;;;;;5059258;28;20549;-72
2023/03/29 03:04:11;;;;;;;2.97;2.43;;;6.90;99.90;;;;;;5056325;28;20456;-72
2023/03/29 03:06:57;;;;;;;6.67;3.03;;;7.00;99.90;;;;;;5052304;28;20447;-72
2023/03/29 03:09:45;;;;;;;3.17;2.23;;;6.90;99.90;;;;;;5052892;28;20430;-71
2023/03/29 03:12:30;;;;;;;4.10;2.50;;;6.90;99.90;;;;;;5056905;28;20955;-72
2023/03/29 03:15:16;;;;;;;6.10;2.90;;;7.00;99.90;;;;;;5047589;28;20769;-72
2023/03/29 03:18:02;;;;;;;4.20;2.97;;;6.80;99.90;;;;;;5047652;28;20473;-72
2023/03/29 03:20:55;;;;;;;3.93;2.17;;;6.90;99.90;;;;;;5063302;28;20421;-73
2023/03/29 03:23:41;;;;;;;5.03;2.67;;;6.80;99.90;;;;;;5060572;28;20580;-72
2023/03/29 03:26:30;;;;;;;3.97;2.60;;;6.80;99.90;;;;;;5049518;28;20426;-72
2023/03/29 03:29:16;;;;;;;4.73;3.00;;;6.80;99.90;;;;;;5058197;28;20426;-72
2023/03/29 03:32:02;;;;;;;3.70;2.63;;;6.80;99.90;;;;;;5050313;28;20421;-71
2023/03/29 03:34:48;;;;;;;4.60;2.50;;;6.70;99.90;;;;;;5062600;28;20437;-72
2023/03/29 03:37:34;;;;;;;6.80;3.00;;;6.60;99.90;;;;;;5058741;28;20440;-72
2023/03/29 03:40:20;;;;;;;5.07;2.67;;;6.70;99.90;;;;;;5054923;28;20510;-72
2023/03/29 03:43:07;;;;;;;4.30;2.50;;;6.60;99.90;;;;;;5054379;28;20499;-72
2023/03/29 03:45:53;;;;;;;6.93;3.60;;;6.50;99.90;;;;;;5056387;28;20432;-72
2023/03/29 03:48:39;;;;;;;7.32;3.03;;;6.50;99.90;;;;;;5052195;28;20855;-72
2023/03/29 03:51:24;;;;;;;3.30;2.73;;;6.40;99.90;;;;;;5058407;28;20331;-72
2023/03/29 03:54:10;;;;;;;3.10;2.23;;;6.20;99.90;;;;;;5050333;28;20441;-72
2023/03/29 03:56:55;;;;;;;3.77;2.70;;;6.00;99.90;;;;;;5050399;28;20448;-72
2023/03/29 03:59:42;;;;;;;10.93;2.90;;;5.90;99.90;;;;;;5052631;28;20484;-72
2023/03/29 04:02:27;;;;;;;3.20;2.50;;;5.80;99.90;;;;;;5065638;28;20423;-72
2023/03/29 04:05:13;;;;;;;6.78;2.53;;;5.80;99.90;;;;;;5058236;28;20497;-72
2023/03/29 04:08:00;;;;;;;10.17;3.47;;;5.90;99.90;;;;;;5045931;28;20291;-72
2023/03/29 04:10:52;;;;;;;3.20;2.63;;;5.80;99.90;;;;;;5066184;28;20527;-72
2023/03/29 04:13:37;;;;;;;3.63;2.43;;;5.70;99.90;;;;;;5055831;28;20309;-72
2023/03/29 04:16:25;;;;;;;5.33;2.30;;;5.70;99.90;;;;;;5060020;28;20775;-72
2023/03/29 04:19:12;;;;;;;4.27;2.03;;;5.60;99.90;;;;;;5054324;28;20504;-72
2023/03/29 04:21:57;;;;;;;3.40;2.57;;;5.80;99.90;;;;;;5043147;28;20943;-72
2023/03/29 04:24:43;;;;;;;3.17;2.43;;;5.90;99.90;;;;;;5061586;28;20430;-71
2023/03/29 04:27:29;;;;;;;5.33;3.03;;;5.90;99.90;;;;;;5056209;28;20449;-72
2023/03/29 04:30:15;;;;;;;3.95;2.45;;;6.10;99.90;;;;;;5062821;28;20438;-72
2023/03/29 04:33:02;;;;;;;8.00;2.80;;;6.20;99.90;;;;;;5053208;28;20535;-72
2023/03/29 04:35:48;;;;;;;4.00;2.90;;;6.10;99.90;;;;;;5056227;28;20455;-72
2023/03/29 04:38:35;;;;;;;4.53;2.83;;;6.20;99.90;;;;;;5054996;28;20538;-72
2023/03/29 04:41:21;;;;;;;2.87;2.37;;;6.10;99.90;;;;;;5061588;28;20467;-72
2023/03/29 04:44:07;;;;;;;3.37;2.40;;;6.10;99.90;;;;;;5056825;28;20454;-72
2023/03/29 04:46:52;;;;;;;4.33;3.00;;;6.00;99.90;;;;;;5045046;28;20469;-73
2023/03/29 04:49:39;;;;;;;3.95;2.50;;;6.00;99.90;;;;;;5059725;28;21061;-72
2023/03/29 04:52:26;;;;;;;3.00;2.33;;;5.90;99.90;;;;;;5060073;28;20230;-72
2023/03/29 04:55:12;;;;;;;3.17;2.20;;;6.00;99.90;;;;;;5050808;28;20434;-72
2023/03/29 04:57:57;;;;;;;4.87;2.93;;;6.10;99.90;;;;;;5057181;28;20519;-72
2023/03/29 05:00:44;;;;;;;5.57;2.37;;;6.10;99.90;;;;;;5052573;28;20438;-72
2023/03/29 05:03:30;;;;;;;6.20;2.63;;;6.00;99.90;;;;;;5057004;28;20461;-72
2023/03/29 05:06:17;;;;;;;3.63;2.10;;;6.00;99.90;;;;;;5051634;28;20202;-72
2023/03/29 05:09:03;;;;;;;2.70;2.17;;;5.90;99.90;;;;;;5056135;28;20937;-72
2023/03/29 05:11:50;;;;;;;3.50;2.43;;;5.90;99.90;;;;;;5061091;28;20563;-72
2023/03/29 05:14:35;;;;;;;3.43;2.10;;;6.00;99.90;;;;;;5056402;28;20429;-72
2023/03/29 05:17:21;;;;;;;2.57;2.03;;;5.90;99.90;;;;;;5042345;28;20424;-72
2023/03/29 05:20:10;;;;;;;3.50;2.30;;;5.80;99.90;;;;;;5056247;28;20467;-72
2023/03/29 05:22:57;;;;;;;6.47;2.10;;;5.80;99.90;;;;;;5058766;28;20773;-72
2023/03/29 05:25:43;;;;;;;3.25;2.40;;;5.90;99.90;;;;;;5053560;28;20693;-72
2023/03/29 05:28:28;;;;;;;3.28;2.10;;;5.80;99.90;;;;;;5048578;28;20285;-72
2023/03/29 05:31:15;;;;;;;3.10;2.27;;;5.90;99.90;;;;;;5051467;28;20214;-72
2023/03/29 05:34:00;;;;;;;5.23;3.00;;;5.90;99.90;;;;;;5053750;28;20914;-72
2023/03/29 05:36:47;;;;;;;4.47;2.80;;;6.00;99.90;;;;;;5058814;28;20811;-73
2023/03/29 05:39:36;;;;;;;6.07;3.78;;;6.10;99.90;;;;;;5061218;28;20271;-72
2023/03/29 05:42:22;;;;;;;4.87;2.70;;;6.00;99.90;;;;;;5061571;28;20322;-72
2023/03/29 05:45:09;;;;;;;3.10;2.30;;;6.10;99.90;;;;;;5059451;28;20825;-72
2023/03/29 05:47:55;;;;;;;10.50;2.63;;;6.30;99.90;;;;;;5053506;28;20770;-72
2023/03/29 05:50:41;;;;;;;4.10;2.47;;;6.20;99.90;;;;;;5063041;28;20434;-72
2023/03/29 05:53:27;;;;;;;3.60;2.20;;;6.30;99.90;;;;;;5062756;28;20989;-72
2023/03/29 05:56:15;;;;;;;6.53;2.47;;;6.30;99.90;;;;;;5057556;28;20203;-72
2023/03/29 05:59:01;;;;;;;4.30;2.57;;;6.40;99.90;;;;;;5054679;28;20989;-73
2023/03/29 06:01:46;;;;;;;5.23;2.90;;;6.50;99.90;;;;;;5065097;28;20436;-73
2023/03/29 06:04:32;;;;;;;11.83;7.90;;;6.50;99.90;;;;;;5052419;28;20430;-72
2023/03/29 06:07:18;;;;;;;10.90;7.23;;;6.60;99.90;;;;;;5053165;28;20407;-73
2023/03/29 06:10:04;;;;;;;13.33;7.80;;;6.70;99.90;;;;;;5061525;28;20422;-72
2023/03/29 06:12:51;;;;;;;5.27;3.80;;;6.60;99.90;;;;;;5064463;28;20453;-72
2023/03/29 06:15:36;;;;;;;4.60;3.00;;;6.70;99.90;;;;;;5059342;28;20559;-72
2023/03/29 06:18:22;;;;;;;6.70;3.40;;;6.80;99.90;;;;;;5057432;28;21107;-71
2023/03/29 06:21:08;;;;;;;4.80;3.40;;;6.90;99.90;;;;;;5054012;28;20501;-73
2023/03/29 06:23:53;;;;;;;4.60;3.57;;;7.00;99.90;;;;;;5055230;28;20445;-72
2023/03/29 06:26:38;;;;;;;10.00;4.30;;;7.10;99.90;;;;;;5054450;28;20883;-72
2023/03/29 06:29:26;;;;;;;4.70;3.07;;;7.20;99.90;;;;;;5056316;28;20544;-72
2023/03/29 06:32:12;;;;;;;4.23;3.70;;;7.30;99.90;;;;;;5060354;28;20420;-72
2023/03/29 06:34:58;;;;;;;4.67;3.63;;;7.40;99.90;;;;;;5053663;28;20528;-71
2023/03/29 06:37:48;;;;;;;5.43;4.00;;;7.50;99.90;;;;;;5048935;28;20827;-72
2023/03/29 06:40:36;;;;;;;6.47;4.33;;;7.50;99.90;;;;;;5051909;28;20438;-71
2023/03/29 06:43:21;;;;;;;6.80;5.40;;;7.70;99.90;;;;;;5055799;28;21121;-72
2023/03/29 06:46:10;;;;;;;8.90;5.70;;;7.80;99.90;;;;;;5049838;28;20453;-72
2023/03/29 06:48:56;;;;;;;7.00;5.50;;;7.80;99.90;;;;;;5050486;28;20417;-71
2023/03/29 06:51:41;;;;;;;7.57;6.03;;;7.80;99.90;;;;;;5058162;28;21058;-72
2023/03/29 06:54:27;;;;;;;7.43;5.53;;;7.90;99.90;;;;;;5049064;28;20454;-72
2023/03/29 06:57:13;;;;;;;8.73;5.57;;;8.00;99.90;;;;;;5053634;28;20442;-72
2023/03/29 06:59:59;;;;;;;8.27;5.87;;;8.00;99.90;;;;;;5059419;28;20553;-73
2023/03/29 07:02:46;;;;;;;7.50;6.43;;;8.00;99.90;;;;;;5066858;28;20564;-72
2023/03/29 07:05:35;;;;;;;7.60;6.10;;;8.10;99.90;;;;;;5048536;28;20453;-72
2023/03/29 07:08:21;;;;;;;11.30;6.07;;;8.20;99.90;;;;;;5058186;28;20423;-72
2023/03/29 07:11:07;;;;;;;5.90;4.90;;;8.30;99.90;;;;;;5048927;28;20499;-72
2023/03/29 07:13:53;;;;;;;8.00;4.47;;;8.40;99.90;;;;;;5044755;28;20489;-72
2023/03/29 07:16:38;;;;;;;6.00;4.00;;;8.40;99.90;;;;;;5052939;28;20890;-71
2023/03/29 07:19:27;;;;;;;11.83;5.20;;;8.50;99.90;;;;;;5050173;28;20469;-72
2023/03/29 07:22:14;;;;;;;33.10;11.70;;;8.60;99.90;;;;;;5049559;28;20459;-72
2023/03/29 07:24:59;;;;;;;14.97;6.50;;;8.70;99.90;;;;;;5046375;28;20802;-72
2023/03/29 07:27:46;;;;;;;16.37;5.23;;;8.90;99.90;;;;;;5054937;28;20429;-72
2023/03/29 07:30:31;;;;;;;7.93;4.73;;;9.00;99.90;;;;;;5051879;28;20438;-72
2023/03/29 07:33:17;;;;;;;6.30;3.57;;;9.20;99.90;;;;;;5051535;28;20621;-72
2023/03/29 07:36:05;;;;;;;6.70;2.73;;;9.40;99.90;;;;;;5049255;28;20450;-72
2023/03/29 07:38:51;;;;;;;6.97;4.07;;;9.50;99.90;;;;;;5052883;28;20487;-72
2023/03/29 07:41:36;;;;;;;5.10;3.33;;;9.70;99.90;;;;;;5057797;28;20560;-72
2023/03/29 07:44:22;;;;;;;6.00;4.27;;;9.70;99.90;;;;;;5047217;28;20637;-72
2023/03/29 07:47:08;;;;;;;7.73;2.87;;;9.80;99.90;;;;;;5048805;28;20488;-72
2023/03/29 07:49:54;;;;;;;6.77;3.10;;;9.80;99.90;;;;;;5054931;28;20797;-72
2023/03/29 07:52:42;;;;;;;6.07;3.30;;;9.80;99.90;;;;;;5049588;28;20965;-72
2023/03/29 07:55:27;;;;;;;3.63;2.60;;;9.80;99.70;;;;;;5049516;28;20556;-72
2023/03/29 07:58:13;;;;;;;10.37;6.60;;;9.80;99.90;;;;;;5055540;28;20894;-72
2023/03/29 08:00:59;;;;;;;7.33;3.60;;;10.00;99.90;;;;;;5049502;28;20437;-72
2023/03/29 08:03:45;;;;;;;6.57;3.20;;;10.00;95.60;;;;;;5046591;28;20462;-73
2023/03/29 08:06:31;;;;;;;4.60;3.30;;;10.10;97.10;;;;;;5045137;28;20828;-72
2023/03/29 08:09:18;;;;;;;4.97;3.10;;;10.20;99.00;;;;;;5053331;28;20435;-72
2023/03/29 08:12:04;;;;;;;7.20;2.77;;;10.20;96.20;;;;;;5040864;28;20443;-71
2023/03/29 08:14:49;;;;;;;6.90;3.17;;;10.20;92.20;;;;;;5075738;22;20491;-71
2023/03/29 08:17:36;;;;;;;6.83;2.50;;;10.20;93.10;;;;;;5072760;28;20411;-73
2023/03/29 08:20:21;;;;;;;5.67;3.13;;;10.30;94.60;;;;;;5076515;28;20487;-74
2023/03/29 08:23:07;;;;;;;6.60;3.33;;;10.20;94.30;;;;;;5064313;28;20952;-73
2023/03/29 08:25:54;;;;;;;5.40;3.00;;;10.30;95.90;;;;;;5064990;28;20427;-72
2023/03/29 08:28:40;;;;;;;5.67;3.40;;;10.30;93.10;;;;;;5068498;28;20494;-72
2023/03/29 08:31:26;;;;;;;3.67;2.87;;;10.30;93.90;;;;;;5065555;28;20492;-72
2023/03/29 08:34:11;;;;;;;6.50;3.33;;;10.40;94.20;;;;;;5061861;28;20461;-72
2023/03/29 08:36:57;;;;;;;5.03;2.70;;;10.40;95.00;;;;;;5064198;28;20911;-72
2023/03/29 08:39:43;;;;;;;5.63;2.97;;;10.40;93.50;;;;;;5066500;28;20808;-72
2023/03/29 08:43:10;;;;;;;5.77;2.97;;;10.40;93.80;;;;;;5055356;28;20450;-72
2023/03/29 08:46:06;;;;;;;6.37;3.77;;;10.50;93.60;;;;;;5067078;28;20851;-72
2023/03/29 08:48:56;;;;;;;10.00;4.03;;;10.60;93.60;;;;;;5067662;28;20976;-72
2023/03/29 08:51:46;;;;;;;9.27;3.77;;;10.70;93.60;;;;;;5064944;28;20449;-72
2023/03/29 08:54:37;;;;;;;11.60;3.30;;;10.80;93.40;;;;;;5061232;28;20567;-72
2023/03/29 08:57:27;;;;;;;7.20;3.20;;;10.70;92.90;;;;;;5061191;28;20539;-72
2023/03/29 09:00:21;;;;;;;7.77;3.97;;;10.80;92.20;;;;;;5064060;28;20956;-72
2023/03/29 09:03:16;;;;;;;7.80;3.67;;;11.00;92.70;;;;;;5058354;28;20477;-72
2023/03/29 09:06:05;;;;;;;6.33;3.30;;;11.00;92.40;;;;;;5063983;28;20445;-72
2023/03/29 09:08:52;;;;;;;4.43;2.63;;;11.00;91.70;;;;;;5063278;28;20532;-72
2023/03/29 09:12:01;;;;;;;8.10;3.30;;;10.90;90.90;;;;;;5062598;28;20543;-71
2023/03/29 09:15:07;;;;;;;9.43;3.00;;;11.00;91.80;;;;;;5065164;28;20457;-72
2023/03/29 09:18:09;;;;;;;20.33;3.03;;;10.90;93.30;;;;;;5068516;28;20477;-72
2023/03/29 09:21:01;;;;;;;4.33;2.90;;;10.90;92.10;;;;;;5064433;28;20595;-76
2023/03/29 09:24:09;;;;;;;5.37;2.97;;;11.00;92.20;;;;;;5065201;28;20472;-72
2023/03/29 09:26:58;;;;;;;9.37;2.67;;;11.00;92.60;;;;;;5076001;28;20424;-72
2023/03/29 09:29:52;;;;;;;4.33;2.87;;;11.00;93.20;;;;;;5076026;28;20480;-72
2023/03/29 09:32:45;;;;;;;14.10;2.90;;;11.10;92.10;;;;;;5073871;28;20506;-72
2023/03/29 09:35:37;;;;;;;4.80;2.63;;;11.10;92.70;;;;;;5069340;28;20417;-72
2023/03/29 09:38:22;;;;;;;4.80;2.50;;;11.10;93.10;;;;;;5059920;28;20834;-72
2023/03/29 09:41:20;;;;;;;5.43;3.00;;;11.10;93.60;;;;;;5062985;28;20615;-73
2023/03/29 09:44:09;;;;;;;4.10;2.70;;;11.00;92.80;;;;;;5067381;28;20947;-74
2023/03/29 09:46:58;;;;;;;4.90;3.17;;;11.00;92.60;;;;;;5068940;28;21036;-74
2023/03/29 09:49:48;;;;;;;4.57;3.00;;;11.10;93.20;;;;;;5065596;28;20441;-73
2023/03/29 09:52:35;;;;;;;6.30;2.77;;;11.10;93.10;;;;;;5063611;28;20997;-74
2023/03/29 09:55:26;;;;;;;4.17;2.67;;;11.20;94.20;;;;;;5069514;28;20431;-72
2023/03/29 09:58:14;;;;;;;4.00;2.30;;;11.20;93.80;;;;;;5065315;28;21152;-72
2023/03/29 10:01:03;;;;;;;6.27;3.37;;;11.20;94.00;;;;;;5066519;28;20991;-72
2023/03/29 10:03:51;;;;;;;4.30;3.00;;;11.20;93.80;;;;;;5070485;28;20455;-71
2023/03/29 10:06:41;;;;;;;12.03;3.40;;;11.10;93.40;;;;;;5072546;28;20492;-72
2023/03/29 10:09:29;;;;;;;6.27;2.97;;;11.30;94.30;;;;;;5067668;28;20464;-70
2023/03/29 10:12:16;;;;;;;6.63;2.63;;;11.40;94.30;;;;;;5062395;28;20434;-71
2023/03/29 10:15:04;;;;;;;3.90;2.30;;;11.40;93.80;;;;;;5069537;28;20471;-72
2023/03/29 10:17:58;;;;;;;7.73;3.20;;;11.50;94.20;;;;;;5065302;28;20450;-71
2023/03/29 10:20:44;;;;;;;5.40;2.67;;;11.50;93.80;;;;;;5061298;28;20505;-72
2023/03/29 10:23:34;;;;;;;5.80;2.37;;;11.60;94.00;;;;;;5071457;28;20447;-73
2023/03/29 10:26:27;;;;;;;4.93;2.50;;;11.70;94.70;;;;;;5075533;28;20405;-72
2023/03/29 10:29:13;;;;;;;4.33;2.10;;;11.80;93.80;;;;;;5080542;28;20404;-72
2023/03/29 10:31:59;;;;;;;3.00;2.23;;;11.80;94.00;;;;;;5073364;28;20444;-72
2023/03/29 10:34:46;;;;;;;7.40;2.30;;;11.90;94.10;;;;;;5067163;28;20441;-72
2023/03/29 10:37:32;;;;;;;8.50;2.93;;;12.00;93.80;;;;;;5076676;28;20904;-72
2023/03/29 10:40:22;;;;;;;5.00;2.40;;;12.10;93.80;;;;;;5078543;28;20531;-72
2023/03/29 10:43:20;;;;;;;5.20;2.67;;;12.20;94.70;;;;;;5074810;28;20476;-72
2023/03/29 10:46:11;;;;;;;5.50;2.50;;;12.30;93.70;;;;;;5078363;28;20427;-72
2023/03/29 10:48:59;;;;;;;4.60;2.10;;;12.40;93.00;;;;;;5082484;28;20399;-73
2023/03/29 10:51:46;;;;;;;3.50;1.77;;;12.40;93.20;;;;;;5070269;28;20426;-73
2023/03/29 10:54:32;;;;;;;3.50;1.80;;;12.60;92.50;;;;;;5080426;28;20580;-72
2023/03/29 10:57:27;;;;;;;3.47;2.00;;;12.70;94.40;;;;;;5082194;28;20408;-72
2023/03/29 11:00:19;;;;;;;4.20;2.30;;;12.70;93.30;;;;;;5075116;28;20490;-72
2023/03/29 11:03:29;;;;;;;2.70;2.00;;;12.80;92.70;;;;;;5076538;28;20494;-72
2023/03/29 11:06:23;;;;;;;6.53;2.00;;;12.80;92.10;;;;;;5064854;28;20431;-72
2023/03/29 11:09:20;;;;;;;4.30;2.57;;;12.80;91.40;;;;;;5073916;28;20407;-72
2023/03/29 11:12:15;;;;;;;3.80;1.80;;;12.90;91.30;;;;;;5072324;28;20798;-72
2023/03/29 11:15:17;;;;;;;7.87;2.30;;;13.10;91.90;;;;;;5071382;28;20461;-73
2023/03/29 11:18:27;;;;;;;4.63;2.40;;;13.40;91.10;;;;;;5081075;28;20745;-72
2023/03/29 11:21:23;;;;;;;4.57;2.67;;;13.70;87.80;;;;;;5068034;28;20829;-72
2023/03/29 11:24:37;;;;;;;5.07;2.20;;;13.80;80.90;;;;;;5075620;28;20444;-72
2023/03/29 11:27:33;;;;;;;3.80;2.47;;;13.80;79.30;;;;;;5069233;28;20400;-72
2023/03/29 11:30:28;;;;;;;4.60;2.17;;;14.10;79.80;;;;;;5066118;28;20509;-73
2023/03/29 11:33:27;;;;;;;8.40;2.20;;;14.30;80.60;;;;;;5069454;28;20458;-72
2023/03/29 11:36:17;;;;;;;6.30;2.40;;;14.70;71.80;;;;;;5061015;28;20450;-72
2023/03/29 11:39:10;;;;;;;5.03;2.00;;;14.90;68.80;;;;;;5071345;28;20398;-72
2023/03/29 11:42:01;;;;;;;5.50;2.40;;;15.20;63.10;;;;;;5066297;28;20500;-73
2023/03/29 11:44:50;;;;;;;4.70;2.80;;;15.10;61.70;;;;;;5073442;28;20428;-73
2023/03/29 11:47:39;;;;;;;6.77;2.10;;;14.80;56.80;;;;;;5069736;28;20404;-72
2023/03/29 11:50:33;;;;;;;4.00;2.20;;;14.60;57.50;;;;;;5068658;28;20423;-73
2023/03/29 11:53:24;;;;;;;4.13;2.20;;;14.60;58.60;;;;;;5057218;28;20443;-72
2023/03/29 11:56:15;;;;;;;5.00;2.13;;;14.60;58.50;;;;;;5067072;28;20432;-73
2023/03/29 11:59:06;;;;;;;7.67;3.13;;;14.60;58.10;;;;;;5055311;28;20414;-73
2023/03/29 12:01:56;;;;;;;7.10;2.63;;;14.90;58.50;;;;;;5065045;28;20472;-71
2023/03/29 12:04:46;;;;;;;5.13;2.67;;;15.20;53.30;;;;;;5064189;28;20435;-71
2023/03/29 12:07:37;;;;;;;6.03;2.70;;;15.20;51.20;;;;;;5067326;28;20781;-71
2023/03/29 12:10:25;;;;;;;5.97;2.97;;;15.10;53.80;;;;;;5057715;28;20419;-71
2023/03/29 12:13:18;;;;;;;5.63;3.00;;;14.90;50.50;;;;;;5064847;28;20459;-71
2023/03/29 12:16:13;;;;;;;7.70;3.20;;;14.60;54.20;;;;;;5062908;28;20490;-71
2023/03/29 12:19:06;;;;;;;6.00;2.93;;;14.60;54.60;;;;;;5063273;28;20511;-71
2023/03/29 12:21:55;;;;;;;7.00;3.20;;;14.70;53.90;;;;;;5065474;28;20482;-71
2023/03/29 12:24:44;;;;;;;5.60;2.97;;;14.90;56.50;;;;;;5060354;28;20986;-71
2023/03/29 12:27:34;;;;;;;4.70;3.40;;;15.00;55.20;;;;;;5060255;28;20411;-71
2023/03/29 12:30:44;;;;;;;4.23;3.00;;;15.10;57.20;;;;;;5058495;28;20497;-71
2023/03/29 12:33:53;;;;;;;7.43;3.53;;;14.90;54.50;;;;;;5063813;28;20463;-71
2023/03/29 12:36:56;;;;;;;4.50;3.10;;;14.90;54.50;;;;;;5065465;28;20876;-71
2023/03/29 12:39:43;;;;;;;6.47;3.00;;;15.00;55.50;;;;;;5061536;28;20460;-74
2023/03/29 12:42:28;;;;;;;4.57;3.43;;;15.00;55.80;;;;;;5062549;28;21038;-71
2023/03/29 12:45:19;;;;;;;7.43;3.93;;;15.00;54.10;;;;;;5063620;28;20922;-71
2023/03/29 12:48:06;;;;;;;5.20;3.07;;;15.20;55.10;;;;;;5064652;28;20646;-71
2023/03/29 12:50:55;;;;;;;8.20;2.90;;;15.50;55.00;;;;;;5064855;28;20410;-71
2023/03/29 12:53:43;;;;;;;6.30;3.57;;;15.80;55.20;;;;;;5066525;28;20517;-71
2023/03/29 12:56:40;;;;;;;4.80;2.90;;;16.10;52.90;;;;;;5062903;28;20439;-71
2023/03/29 12:59:35;;;;;;;6.67;3.57;;;16.20;52.40;;;;;;5060885;28;20418;-71
2023/03/29 13:02:36;;;;;;;10.13;3.50;;;16.50;51.00;;;;;;5062034;28;20546;-71
2023/03/29 13:05:31;;;;;;;5.37;3.00;;;16.80;46.60;;;;;;5064463;28;20738;-71
2023/03/29 13:08:26;;;;;;;5.93;2.97;;;16.70;47.00;;;;;;5061593;28;20414;-71
2023/03/29 13:11:23;;;;;;;5.03;3.13;;;16.50;47.80;;;;;;5062210;28;20432;-71
2023/03/29 13:14:16;;;;;;;9.60;3.13;;;16.40;46.40;;;;;;5061851;28;21002;-71
2023/03/29 13:17:02;;;;;;;4.73;3.00;;;15.90;48.00;;;;;;5064808;28;20445;-71
2023/03/29 13:19:53;;;;;;;6.90;2.80;;;15.80;50.20;;;;;;5061347;28;20426;-73
2023/03/29 13:22:47;;;;;;;8.43;3.80;;;15.90;50.70;;;;;;5063237;28;20510;-73
2023/03/29 13:25:44;;;;;;;5.07;2.60;;;16.00;52.20;;;;;;5064256;28;20560;-72
2023/03/29 13:28:39;;;;;;;3.93;2.20;;;16.40;52.40;;;;;;5058437;28;20890;-71
2023/03/29 13:31:35;;;;;;;3.77;2.57;;;16.90;51.30;;;;;;5061601;28;20820;-73
2023/03/29 13:34:34;;;;;;;5.40;2.20;;;17.00;43.30;;;;;;5064112;28;20896;-71
2023/03/29 13:37:30;;;;;;;6.07;3.07;;;17.10;43.40;;;;;;5064832;28;20789;-71
2023/03/29 13:40:32;;;;;;;5.63;2.70;;;17.30;42.90;;;;;;5060013;28;21051;-73
2023/03/29 13:43:29;;;;;;;4.00;2.47;;;17.70;41.80;;;;;;5066071;28;20443;-73
2023/03/29 13:46:35;;;;;;;4.70;3.00;;;17.90;41.70;;;;;;5063686;28;20445;-73
2023/03/29 13:49:24;;;;;;;5.10;2.97;;;17.90;39.10;;;;;;5060192;28;20791;-73
2023/03/29 13:52:15;;;;;;;5.00;2.40;;;18.10;38.20;;;;;;5067612;28;20419;-72
2023/03/29 13:55:04;;;;;;;5.27;2.27;;;18.50;39.70;;;;;;5066238;28;20461;-73
2023/03/29 13:57:57;;;;;;;6.30;2.87;;;18.70;37.30;;;;;;5063003;28;20460;-72
2023/03/29 14:00:49;;;;;;;5.20;2.63;;;18.80;38.30;;;;;;5063366;28;20538;-72
2023/03/29 14:03:43;;;;;;;4.33;2.40;;;18.10;34.80;;;;;;5067167;28;20570;-72
2023/03/29 14:06:33;;;;;;;6.13;2.80;;;17.90;38.20;;;;;;5064291;28;20546;-72
2023/03/29 14:09:21;;;;;;;9.10;2.73;;;18.10;39.10;;;;;;5062618;28;20420;-72
2023/03/29 14:12:12;;;;;;;4.13;2.37;;;18.40;37.90;;;;;;5077711;28;20448;-71
2023/03/29 14:15:02;;;;;;;4.83;2.37;;;18.60;35.90;;;;;;5082275;28;20449;-72
2023/03/29 14:17:48;;;;;;;3.83;2.20;;;18.60;36.20;;;;;;5061953;28;20507;-72
2023/03/29 14:20:36;;;;;;;3.57;2.30;;;18.70;37.60;;;;;;5068403;28;20483;-72
2023/03/29 14:23:25;;;;;;;4.53;2.50;;;18.60;38.10;;;;;;5068820;28;21065;-72
2023/03/29 14:26:15;;;;;;;6.03;3.00;;;18.20;37.60;;;;;;5061555;28;20427;-72
2023/03/29 14:29:03;;;;;;;6.60;3.00;;;18.10;38.30;;;;;;5054854;28;20601;-72
2023/03/29 14:31:48;;;;;;;4.10;2.80;;;17.40;39.90;;;;;;5063019;28;20428;-71
2023/03/29 14:34:35;;;;;;;7.50;2.93;;;17.40;42.80;;;;;;5066348;28;20443;-71
2023/03/29 14:37:25;;;;;;;4.70;2.57;;;17.30;42.50;;;;;;5060938;28;20465;-72
2023/03/29 14:40:17;;;;;;;4.83;3.00;;;17.30;45.80;;;;;;5060280;28;20436;-72
2023/03/29 14:43:07;;;;;;;4.37;2.60;;;17.00;43.30;;;;;;5063689;28;20418;-71
2023/03/29 14:45:53;;;;;;;6.67;2.60;;;17.00;46.20;;;;;;5063514;28;20419;-71
2023/03/29 14:48:40;;;;;;;3.70;2.30;;;16.70;46.70;;;;;;5060983;28;20445;-71